Data for 02/03/2018

Time Sea-Level Adjusted Pressure Absolute Pressure Temperature Relative Humidity Dew Point   
(mb) (inHg) (mb) (inHg) (C) (F) (%) (C) (F)
00:05 1016 30 845 24.95 5 41 57 -2.7 27.1
00:10 1016 30 845 24.95 4.9 40.8 57 -2.8 27
00:15 1016 30 845 24.95 4.8 40.6 59 -2.6 27.4
00:20 1016 30 845 24.95 4.6 40.2 60 -2.6 27.2
00:25 1016 30 845 24.95 4.4 39.9 60 -2.7 27.1
00:30 1016 30 845 24.95 4.3 39.8 60 -2.7 27.2
00:35 1016 30 845 24.95 4.2 39.6 62 -2.5 27.5
00:40 1016 30 845 24.95 4 39.2 61 -2.8 26.9
00:45 1016 30 845 24.95 4 39.2 62 -2.7 27.1
00:50 1016 30 845 24.95 4 39.1 61 -2.9 26.8
00:55 1016 30 845 24.95 4.1 39.4 60 -3 26.6
01:00 1016 30 845 24.95 4.2 39.6 59 -3 26.6
01:05 1016 30 845 24.95 4.3 39.7 58 -3.2 26.2
01:10 1016 30 845 24.95 4.4 39.9 58 -3.2 26.3
01:15 1016 30 845 24.95 4.4 39.9 57 -3.3 26
01:20 1016 30 845 24.95 4.5 40.1 57 -3.3 26
01:25 1016 30 845 24.95 4.6 40.2 56 -3.5 25.7
01:30 1015 29.97 845 24.95 4.7 40.4 56 -3.4 25.9
01:35 1015 29.97 845 24.95 4.7 40.4 56 -3.3 26.1
01:40 1015 29.97 845 24.95 4.5 40.2 57 -3.3 26
01:45 1015 29.97 844 24.92 4.5 40.1 56 -3.6 25.5
01:50 1015 29.97 844 24.92 4.6 40.2 56 -3.6 25.6
01:55 1015 29.97 844 24.92 4.6 40.2 55 -3.6 25.5
02:00 1015 29.97 844 24.92 4.6 40.2 56 -3.6 25.6
02:05 1015 29.97 844 24.92 4.5 40.1 56 -3.6 25.5
02:10 1015 29.97 844 24.92 4.6 40.3 54 -3.9 25
02:15 1015 29.97 844 24.92 4.8 40.6 54 -3.8 25.2
02:20 1015 29.97 844 24.92 4.7 40.4 54 -3.9 25
02:25 1015 29.97 844 24.92 4.7 40.5 53 -3.9 24.9
02:30 1015 29.97 844 24.92 4.8 40.6 54 -3.9 25.1
02:35 1015 29.97 844 24.92 4.8 40.6 52 -4.1 24.6
02:40 1015 29.97 845 24.95 5 40.9 52 -4.1 24.7
02:45 1016 30 845 24.95 5 41 53 -3.9 25
02:50 1016 30 845 24.95 4.8 40.6 54 -3.7 25.3
02:55 1015 29.97 845 24.95 4.7 40.4 54 -3.9 24.9
03:00 1015 29.97 845 24.95 4.7 40.4 55 -3.6 25.5
03:05 1015 29.97 845 24.95 4.5 40.1 57 -3.4 25.9
03:10 1015 29.97 845 24.95 4.2 39.6 57 -3.5 25.7
03:15 1015 29.97 844 24.92 4.2 39.6 57 -3.5 25.7
03:20 1015 29.97 844 24.92 4.2 39.5 57 -3.7 25.4
03:25 1015 29.97 844 24.92 4.1 39.4 57 -3.5 25.6
03:30 1015 29.97 844 24.92 4.5 40.2 50 -4.9 23.2
03:35 1015 29.97 844 24.92 5.1 41.3 52 -3.9 24.9
03:40 1015 29.97 844 24.92 4.9 40.8 53 -3.9 25
03:45 1015 29.97 844 24.92 4.7 40.4 54 -3.8 25.2
03:50 1015 29.97 844 24.92 4.6 40.3 54 -3.9 24.9
03:55 1015 29.97 844 24.92 4.6 40.2 55 -3.7 25.4
04:00 1015 29.97 844 24.92 4.5 40.1 54 -4 24.9
04:05 1015 29.97 844 24.92 4.7 40.5 51 -4.5 23.9
04:10 1015 29.97 844 24.92 5.2 41.3 50 -4.3 24.2
04:15 1015 29.97 844 24.92 5.3 41.5 49 -4.7 23.5
04:20 1015 29.97 844 24.92 5.4 41.8 49 -4.5 23.8
04:25 1015 29.97 844 24.92 5.4 41.6 50 -4.2 24.4
04:30 1015 29.97 844 24.92 5.2 41.4 49 -4.5 23.8
04:35 1015 29.97 844 24.92 5.3 41.5 49 -4.5 23.9
04:40 1015 29.97 844 24.92 5.3 41.5 49 -4.4 24
04:45 1015 29.97 844 24.92 5.3 41.5 49 -4.4 24
04:50 1015 29.97 844 24.92 5.2 41.4 50 -4.3 24.3
04:55 1014 29.94 844 24.92 5.2 41.3 48 -4.9 23.3
05:00 1014 29.94 844 24.92 5.5 42 46 -5.2 22.7
05:05 1014 29.94 843 24.89 5.8 42.4 46 -5 22.9
05:10 1014 29.94 843 24.89 5.8 42.4 47 -4.6 23.6
05:15 1014 29.94 843 24.89 5.5 41.9 48 -4.5 23.9
05:20 1014 29.94 843 24.89 5.4 41.7 48 -4.8 23.3
05:25 1014 29.94 843 24.89 5.5 42 46 -5.2 22.6
05:30 1014 29.94 843 24.89 5.7 42.2 46 -4.9 23.1
05:35 1013 29.91 843 24.89 5.6 42.1 46 -5 23
05:40 1014 29.94 843 24.89 5.6 42.1 47 -4.8 23.3
05:45 1013 29.91 843 24.89 5.4 41.8 47 -5.1 22.9
05:50 1013 29.91 843 24.89 5.5 41.9 47 -4.9 23.2
05:55 1013 29.91 843 24.89 5.4 41.7 48 -4.8 23.4
06:00 1013 29.91 842 24.86 5.2 41.4 49 -4.5 23.9
06:05 1013 29.91 842 24.86 5.2 41.4 48 -5 23
06:10 1013 29.91 842 24.86 5.4 41.7 47 -4.9 23.1
06:15 1013 29.91 842 24.86 5.2 41.4 49 -4.5 23.9
06:20 1013 29.91 842 24.86 5.1 41.2 49 -4.6 23.7
06:25 1013 29.91 842 24.86 5.1 41.2 49 -4.7 23.6
06:30 1013 29.91 842 24.86 5.2 41.3 49 -4.7 23.5
06:35 1013 29.91 843 24.89 5.3 41.6 48 -4.8 23.3
06:40 1014 29.94 843 24.89 5.4 41.7 46 -5.2 22.7
06:45 1014 29.94 843 24.89 5.6 42.1 47 -4.9 23.2
06:50 1014 29.94 843 24.89 5.6 42.2 46 -5 23
06:55 1014 29.94 843 24.89 5.6 42.2 47 -4.7 23.6
07:00 1014 29.94 843 24.89 5.5 41.9 47 -4.8 23.3
07:05 1014 29.94 843 24.89 5.6 42 48 -4.6 23.7
07:10 1014 29.94 843 24.89 5.5 41.9 48 -4.7 23.5
07:15 1013 29.91 843 24.89 5.6 42.1 48 -4.7 23.6
07:20 1013 29.91 842 24.86 5.6 42.1 47 -4.8 23.4
07:25 1013 29.91 843 24.89 5.6 42.1 48 -4.6 23.8
07:30 1013 29.91 842 24.86 5.7 42.2 47 -4.8 23.3
07:35 1013 29.91 842 24.86 5.8 42.4 47 -4.6 23.7
07:40 1013 29.91 842 24.86 5.7 42.2 48 -4.5 23.9
07:45 1013 29.91 842 24.86 5.7 42.3 47 -4.8 23.3
07:50 1013 29.91 842 24.86 5.9 42.7 47 -4.5 23.9
07:55 1013 29.91 842 24.86 5.9 42.6 46 -4.7 23.5
08:00 1013 29.91 843 24.89 5.9 42.6 49 -4.1 24.6
08:05 1013 29.91 843 24.89 5.5 41.9 49 -4.3 24.3
08:10 1013 29.91 843 24.89 5.5 41.9 49 -4.5 24
08:15 1013 29.91 843 24.89 5.6 42.1 49 -4.4 24.1
08:20 1013 29.91 842 24.86 5.6 42.1 49 -4.3 24.3
08:25 1013 29.91 842 24.86 5.5 42 50 -4.1 24.6
08:30 1013 29.91 842 24.86 5.4 41.8 49 -4.3 24.2
08:35 1013 29.91 842 24.86 5.6 42 48 -4.4 24
08:40 1013 29.91 842 24.86 5.6 42.2 48 -4.5 24
08:45 1013 29.91 842 24.86 5.8 42.4 47 -4.7 23.6
08:50 1013 29.91 842 24.86 6 42.7 47 -4.6 23.7
08:55 1013 29.91 842 24.86 6 42.9 46 -4.6 23.7
09:00 1013 29.91 843 24.89 6 42.8 47 -4.6 23.8
09:05 1013 29.91 843 24.89 6 42.8 46 -4.7 23.5
09:10 1013 29.91 843 24.89 6.1 42.9 47 -4.5 23.9
09:15 1014 29.94 843 24.89 6 42.9 46 -4.8 23.4
09:20 1014 29.94 843 24.89 6.1 43 46 -4.5 23.9
09:25 1014 29.94 843 24.89 6.1 43 46 -4.8 23.4
09:30 1014 29.94 843 24.89 6.3 43.3 45 -4.8 23.4
09:35 1014 29.94 843 24.89 6.3 43.3 46 -4.5 23.9
09:40 1014 29.94 843 24.89 6.1 43.1 47 -4.2 24.4
09:45 1014 29.94 843 24.89 6 42.7 49 -4 24.8
09:50 1014 29.94 843 24.89 5.8 42.4 49 -4.1 24.7
09:55 1014 29.94 843 24.89 5.8 42.4 49 -4.1 24.7
10:00 1014 29.94 843 24.89 5.9 42.6 50 -3.8 25.1
10:05 1014 29.94 844 24.92 5.9 42.6 50 -3.7 25.4
10:10 1014 29.94 844 24.92 5.9 42.7 50 -3.7 25.3
10:15 1015 29.97 844 24.92 6 42.7 50 -3.5 25.6
10:20 1015 29.97 844 24.92 6.1 42.9 50 -3.5 25.8
10:25 1015 29.97 844 24.92 6.3 43.3 49 -3.6 25.5
10:30 1015 29.97 844 24.92 6.4 43.5 51 -3.1 26.4
10:35 1015 29.97 844 24.92 6.3 43.4 51 -3 26.5
10:40 1015 29.97 844 24.92 6.3 43.3 51 -3 26.6
10:45 1015 29.97 844 24.92 6.2 43.1 51 -3.2 26.3
10:50 1015 29.97 844 24.92 6.3 43.3 49 -3.6 25.5
10:55 1015 29.97 844 24.92 6.4 43.6 49 -3.6 25.5
11:00 1015 29.97 844 24.92 6.5 43.7 48 -3.7 25.4
11:05 1015 29.97 844 24.92 6.6 43.9 49 -3.4 25.8
11:10 1015 29.97 844 24.92 6.7 44.1 48 -3.5 25.7
11:15 1015 29.97 844 24.92 6.8 44.3 48 -3.4 25.9
11:20 1015 29.97 844 24.92 6.8 44.3 48 -3.4 25.9
11:25 1015 29.97 844 24.92 6.8 44.2 48 -3.3 26
11:30 1015 29.97 844 24.92 6.8 44.3 47 -3.6 25.6
11:35 1015 29.97 844 24.92 6.9 44.5 47 -3.4 25.8
11:40 1015 29.97 844 24.92 6.9 44.4 47 -3.6 25.5
11:45 1015 29.97 844 24.92 6.9 44.4 47 -3.5 25.6
11:50 1015 29.97 844 24.92 6.9 44.4 47 -3.6 25.5
11:55 1015 29.97 844 24.92 6.9 44.4 47 -3.7 25.3
12:00 1015 29.97 844 24.92 6.9 44.5 47 -3.5 25.6
12:05 1015 29.97 844 24.92 6.9 44.5 47 -3.7 25.4
12:10 1015 29.97 844 24.92 7 44.5 47 -3.7 25.3
12:15 1015 29.97 844 24.92 7 44.6 46 -3.7 25.3
12:20 1014 29.94 844 24.92 7 44.6 46 -3.8 25.1
12:25 1014 29.94 844 24.92 7.1 44.8 45 -3.9 25
12:30 1014 29.94 844 24.92 7.2 44.9 46 -3.8 25.2
12:35 1015 29.97 844 24.92 7.2 44.9 46 -3.5 25.7
12:40 1015 29.97 844 24.92 7 44.7 48 -3.3 26
12:45 1014 29.94 844 24.92 6.9 44.4 49 -3.2 26.3
12:50 1014 29.94 844 24.92 6.8 44.2 49 -3.1 26.4
12:55 1014 29.94 844 24.92 6.7 44.1 50 -3 26.7
13:00 1015 29.97 844 24.92 6.7 44.1 50 -2.8 26.9
13:05 1015 29.97 844 24.92 6.7 44.1 50 -3.1 26.5
13:10 1015 29.97 844 24.92 6.8 44.3 49 -3.2 26.2
13:15 1015 29.97 844 24.92 6.9 44.5 47 -3.5 25.8
13:20 1014 29.94 844 24.92 7 44.6 48 -3.3 26
13:25 1014 29.94 844 24.92 6.9 44.4 48 -3.3 26
13:30 1014 29.94 844 24.92 6.9 44.5 48 -3.3 26.1
13:35 1014 29.94 844 24.92 6.9 44.5 49 -3 26.5
13:40 1014 29.94 844 24.92 6.9 44.5 49 -3 26.6
13:45 1014 29.94 844 24.92 6.9 44.4 50 -2.9 26.8
13:50 1014 29.94 844 24.92 6.9 44.4 49 -3 26.6
13:55 1014 29.94 844 24.92 6.9 44.4 49 -3 26.6
14:00 1014 29.94 844 24.92 6.8 44.2 50 -2.8 27
14:05 1014 29.94 844 24.92 6.7 44.1 51 -2.6 27.3
14:10 1014 29.94 844 24.92 6.6 43.8 53 -2.4 27.7
14:15 1014 29.94 844 24.92 6.6 43.8 53 -2.4 27.7
14:20 1014 29.94 843 24.89 6.7 44 52 -2.4 27.6
14:25 1014 29.94 843 24.89 6.7 44.1 53 -2.3 27.8
14:30 1014 29.94 843 24.89 6.7 44 53 -2.3 27.9
14:35 1014 29.94 843 24.89 6.8 44.2 52 -2.3 27.8
14:40 1014 29.94 843 24.89 6.8 44.2 52 -2.4 27.8
14:45 1014 29.94 843 24.89 6.9 44.4 52 -2.3 27.8
14:50 1014 29.94 843 24.89 6.8 44.3 53 -2 28.3
14:55 1014 29.94 843 24.89 6.8 44.2 52 -2.3 27.8
15:00 1014 29.94 843 24.89 6.7 44 52 -2.4 27.8
15:05 1014 29.94 843 24.89 6.6 43.9 53 -2.3 27.9
15:10 1014 29.94 844 24.92 6.5 43.7 54 -2.2 28
15:15 1014 29.94 844 24.92 6.5 43.7 53 -2.3 27.8
15:20 1014 29.94 844 24.92 6.4 43.5 53 -2.5 27.5
15:25 1014 29.94 844 24.92 6.3 43.3 54 -2.3 27.8
15:30 1014 29.94 844 24.92 6.1 42.9 53 -2.7 27.2
15:35 1014 29.94 844 24.92 6.3 43.4 53 -2.6 27.3
15:40 1014 29.94 844 24.92 6.6 43.9 52 -2.7 27.2
15:45 1015 29.97 844 24.92 7.2 45 50 -2.4 27.7
15:50 1015 29.97 844 24.92 6.8 44.3 53 -2.2 28.1
15:55 1015 29.97 844 24.92 6.2 43.2 54 -2.5 27.5
16:00 1015 29.97 844 24.92 6.1 42.9 54 -2.4 27.6
16:05 1014 29.94 844 24.92 6.1 43 53 -2.7 27.2
16:10 1014 29.94 844 24.92 6.2 43.2 55 -2.3 27.9
16:15 1014 29.94 844 24.92 6.1 42.9 54 -2.5 27.5
16:20 1014 29.94 844 24.92 6.1 42.9 54 -2.5 27.6
16:25 1014 29.94 844 24.92 6.1 43 54 -2.6 27.4
16:30 1014 29.94 844 24.92 6.1 43 55 -2.3 27.9
16:35 1014 29.94 844 24.92 5.8 42.5 56 -2.3 27.8
16:40 1014 29.94 844 24.92 5.6 42.1 56 -2.4 27.7
16:45 1014 29.94 843 24.89 5.5 41.9 57 -2.3 27.9
16:50 1014 29.94 843 24.89 5.4 41.7 58 -2.3 27.9
16:55 1014 29.94 843 24.89 5.2 41.4 58 -2.4 27.6
17:00 1014 29.94 843 24.89 4.9 40.9 60 -2.2 28.1
17:05 1014 29.94 844 24.92 4.8 40.6 62 -2 28.5
17:10 1014 29.94 844 24.92 4.3 39.8 63 -2.1 28.3
17:15 1014 29.94 844 24.92 4.1 39.4 64 -2 28.4
17:20 1014 29.94 844 24.92 3.9 39.1 65 -2 28.4
17:25 1014 29.94 844 24.92 3.8 38.8 66 -2 28.5
17:30 1015 29.97 844 24.92 3.7 38.6 67 -1.9 28.7
17:35 1015 29.97 844 24.92 3.5 38.3 67 -1.9 28.5
17:40 1015 29.97 844 24.92 3.5 38.2 68 -1.9 28.5
17:45 1015 29.97 844 24.92 3.3 38 69 -1.9 28.6
17:50 1015 29.97 844 24.92 3.2 37.8 69 -1.8 28.7
17:55 1015 29.97 844 24.92 3.2 37.7 70 -1.7 28.9
18:00 1015 29.97 844 24.92 3.1 37.5 70 -1.8 28.8
18:05 1015 29.97 844 24.92 2.9 37.3 69 -2.1 28.2
18:10 1015 29.97 844 24.92 2.7 36.9 70 -2.3 27.9
18:15 1015 29.97 844 24.92 2.5 36.5 71 -2.2 28
18:20 1015 29.97 844 24.92 2.1 35.8 72 -2.4 27.6
18:25 1015 29.97 844 24.92 1.8 35.2 73 -2.6 27.3
18:30 1015 29.97 844 24.92 1.4 34.5 74 -2.8 27
18:35 1015 29.97 844 24.92 1.2 34.1 75 -2.8 26.9
18:40 1015 29.97 844 24.92 0.9 33.6 77 -2.8 27
18:45 1015 29.97 844 24.92 0.6 33.1 75 -3.3 26.1
18:50 1015 29.97 844 24.92 0.5 33 75 -3.3 26
18:55 1015 29.97 844 24.92 0.4 32.6 77 -3.3 26.1
19:00 1015 29.97 844 24.92 0.2 32.3 77 -3.5 25.8
19:05 1015 29.97 844 24.92 -0.1 31.9 77 -3.7 25.4
19:10 1015 29.97 844 24.92 -0.2 31.7 77 -3.7 25.3
19:15 1015 29.97 844 24.92 -0.3 31.4 77 -3.8 25.1
19:20 1015 29.97 845 24.95 -0.5 31.1 76 -4.2 24.5
19:25 1015 29.97 844 24.92 -0.9 30.3 79 -4.1 24.6
19:30 1015 29.97 845 24.95 -1.4 29.5 80 -4.4 24.2
19:35 1015 29.97 845 24.95 -1.5 29.2 81 -4.4 24.1
19:40 1015 29.97 845 24.95 -1.5 29.3 80 -4.5 24
19:45 1015 29.97 845 24.95 -1.5 29.3 80 -4.6 23.8
19:50 1015 29.97 845 24.95 -1.6 29.1 81 -4.5 23.9
19:55 1015 29.97 845 24.95 -2.2 28 82 -4.9 23.2
20:00 1015 29.97 845 24.95 -2.6 27.3 83 -5.2 22.7
20:05 1015 29.97 845 24.95 -2.6 27.2 81 -5.4 22.2
20:10 1016 30 845 24.95 -2.6 27.3 80 -5.6 22
20:15 1016 30 845 24.95 -2.6 27.4 81 -5.4 22.3
20:20 1016 30 845 24.95 -2.7 27.1 79 -5.8 21.6
20:25 1016 30 845 24.95 -2.7 27.1 80 -5.7 21.7
20:30 1015 29.97 845 24.95 -3.1 26.4 81 -6 21.2
20:35 1016 30 845 24.95 -3.3 26.1 82 -6 21.2
20:40 1016 30 845 24.95 -3.3 26 81 -6.2 20.8
20:45 1016 30 845 24.95 -3.1 26.4 79 -6.3 20.6
20:50 1016 30 845 24.95 -3 26.5 78 -6.3 20.7
20:55 1016 30 845 24.95 -3.1 26.5 78 -6.3 20.6
21:00 1016 30 845 24.95 -3.3 26.1 78 -6.5 20.3
21:05 1016 30 845 24.95 -3.6 25.4 80 -6.6 20.2
21:10 1016 30 845 24.95 -3.7 25.3 81 -6.5 20.2
21:15 1016 30 845 24.95 -3.7 25.3 81 -6.5 20.3
21:20 1016 30 845 24.95 -3.5 25.7 79 -6.6 20.1
21:25 1016 30 845 24.95 -3.4 26 79 -6.5 20.2
21:30 1016 30 845 24.95 -3.3 26.1 79 -6.5 20.3
21:35 1016 30 845 24.95 -3.3 26 79 -6.5 20.4
21:40 1016 30 845 24.95 -3.4 25.8 79 -6.5 20.3
21:45 1016 30 845 24.95 -3.5 25.7 80 -6.5 20.3
21:50 1016 30 845 24.95 -3.5 25.6 80 -6.5 20.3
21:55 1016 30 845 24.95 -3.8 25.2 81 -6.6 20.2
22:00 1016 30 845 24.95 -4.4 24.1 83 -6.8 19.8
22:05 1016 30 845 24.95 -4.4 24 83 -7 19.5
22:10 1016 30 845 24.95 -4.6 23.7 81 -7.4 18.6
22:15 1016 30 845 24.95 -5.1 22.8 81 -7.9 17.9
22:20 1016 30 846 24.98 -5.4 22.3 80 -8.3 17
22:25 1017 30.03 846 24.98 -5.7 21.7 79 -8.8 16.2
22:30 1017 30.03 846 24.98 -6.2 20.9 81 -9 15.8
22:35 1017 30.03 846 24.98 -6.4 20.5 80 -9.2 15.4
22:40 1017 30.03 846 24.98 -6.6 20.1 81 -9.3 15.2
22:45 1017 30.03 846 24.98 -6.7 19.9 80 -9.6 14.8
22:50 1017 30.03 846 24.98 -7 19.4 79 -10 14
22:55 1017 30.03 846 24.98 -7.4 18.7 81 -10.2 13.7
23:00 1017 30.03 847 25.01 -7.5 18.4 80 -10.4 13.2
23:05 1018 30.06 847 25.01 -7.6 18.3 80 -10.5 13
23:10 1018 30.06 847 25.01 -7.8 18.1 80 -10.6 13
23:15 1018 30.06 847 25.01 -8 17.6 81 -10.7 12.8
23:20 1018 30.06 847 25.01 -8 17.6 80 -10.8 12.5
23:25 1018 30.06 848 25.04 -8.1 17.3 80 -11 12.2
23:30 1019 30.09 848 25.04 -9 15.8 74 -12.8 8.9
23:35 1019 30.09 848 25.04 -9.9 14.2 75 -13.6 7.6
23:40 1019 30.09 848 25.04 -10.6 13 75 -14.1 6.6
23:45 1019 30.09 848 25.04 -11 12.2 74 -14.8 5.4
23:50 1019 30.09 848 25.04 -11.7 10.9 76 -15.1 4.9
23:55 1019 30.09 848 25.04 -11.9 10.5 77 -15.2 4.7
24:00 1019 30.09 848 25.04 -12.1 10.2 76 -15.5 4